Custer Park, Illinois
Current Conditions -  °F | °C
As of 8:35 AM on Thursday 23 Oct 2014 (Local Time) from KJOT Reporting Station
Haze Haze  
Wind Chill: 40°   Ceiling: Unl
Heat Index: 40°   Visibility: 5mi
Dew Point: 37°   Wind: 0mph
Humidity: 91%   Direction: NA
Pressure: 30.23"   Gusts: NA
Location:  41.3199°N, 88.0518°W
Report Text: KJOT 231335Z AUTO 00000KT 5SM BR CLR 04/03 A3023 RMK AO2 T00430030
Loading
Personal Weather Stations






























Interactive Weather Map
Tropical Storm Tracking
New forecast layout! Learn more

10-Day Weather Forecast

Advertisements
Track Severe Weather on mobile